createdAt,value
2023-02-03T00:00:12.856Z,0.70
2023-02-03T00:02:42.210Z,0.60
2023-02-03T00:05:10.454Z,0.50
2023-02-03T00:07:40.568Z,0.40
2023-02-03T00:10:10.117Z,0.53
2023-02-03T00:12:38.085Z,0.37
2023-02-03T00:15:07.139Z,0.40
2023-02-03T00:17:34.985Z,0.40
2023-02-03T00:20:04.671Z,0.40
2023-02-03T00:22:32.655Z,0.50
2023-02-03T00:25:00.522Z,0.40
2023-02-03T00:27:28.443Z,0.30
2023-02-03T00:29:56.390Z,0.40
2023-02-03T00:32:24.373Z,0.40
2023-02-03T00:34:52.538Z,0.30
2023-02-03T00:37:23.059Z,0.33
2023-02-03T00:39:51.199Z,0.33
2023-02-03T00:42:19.927Z,0.30
2023-02-03T00:44:47.819Z,0.30
2023-02-03T00:47:15.668Z,0.40
2023-02-03T00:49:43.539Z,0.40
2023-02-03T00:52:11.468Z,0.33
2023-02-03T00:54:40.817Z,0.43
2023-02-03T00:57:08.743Z,0.43
2023-02-03T00:59:36.605Z,0.60
2023-02-03T01:02:05.215Z,0.70
2023-02-03T01:04:33.128Z,0.90
2023-02-03T01:07:01.238Z,1.00
2023-02-03T01:09:29.105Z,1.20
2023-02-03T01:11:58.481Z,1.10
2023-02-03T01:14:26.396Z,1.07
2023-02-03T01:16:54.672Z,1.10
2023-02-03T01:19:23.276Z,1.00
2023-02-03T01:21:51.258Z,1.23
2023-02-03T01:24:19.561Z,2.10
2023-02-03T01:26:47.501Z,2.10
2023-02-03T01:29:16.716Z,1.50
2023-02-03T01:31:45.058Z,1.57
2023-02-03T01:34:16.287Z,1.83
2023-02-03T01:36:46.749Z,1.70
2023-02-03T01:39:15.386Z,1.70
2023-02-03T01:41:45.946Z,2.00
2023-02-03T01:44:41.707Z,2.20
2023-02-03T01:47:19.797Z,2.83
2023-02-03T01:49:56.698Z,3.57
2023-02-03T01:52:25.937Z,3.23
2023-02-03T01:54:59.145Z,4.57
2023-02-03T01:57:34.971Z,4.30
2023-02-03T02:00:07.909Z,5.17
2023-02-03T02:02:44.160Z,4.93
2023-02-03T02:05:21.450Z,4.83
2023-02-03T02:07:50.673Z,5.13
2023-02-03T02:10:21.372Z,4.63
2023-02-03T02:12:50.174Z,5.43
2023-02-03T02:15:24.907Z,4.70
2023-02-03T02:18:14.432Z,4.20
2023-02-03T02:21:23.360Z,4.73
2023-02-03T02:24:43.322Z,4.83
2023-02-03T02:27:32.430Z,4.90
2023-02-03T02:30:44.042Z,4.80
2023-02-03T02:33:31.813Z,4.67
2023-02-03T02:36:16.919Z,4.30
2023-02-03T02:38:57.054Z,4.73
2023-02-03T02:41:32.652Z,4.17
2023-02-03T02:44:10.740Z,3.73
2023-02-03T02:46:44.148Z,4.27
2023-02-03T02:49:20.234Z,3.77
2023-02-03T02:51:50.737Z,3.20
2023-02-03T02:54:25.020Z,3.50
2023-02-03T02:56:59.154Z,3.30
2023-02-03T02:59:29.564Z,3.67
2023-02-03T03:01:58.432Z,3.60
2023-02-03T03:04:32.790Z,3.50
2023-02-03T03:07:06.898Z,3.57
2023-02-03T03:09:41.256Z,3.40
2023-02-03T03:12:16.194Z,3.33
2023-02-03T03:14:49.575Z,2.63
2023-02-03T03:17:27.064Z,2.93
2023-02-03T03:20:02.759Z,2.80
2023-02-03T03:22:38.620Z,2.70
2023-02-03T03:25:15.862Z,3.50
2023-02-03T03:27:51.186Z,3.63
2023-02-03T03:30:26.551Z,3.37
2023-02-03T03:32:55.002Z,3.47
2023-02-03T03:35:29.411Z,3.57
2023-02-03T03:38:04.417Z,3.80
2023-02-03T03:40:41.280Z,4.00
2023-02-03T03:43:16.835Z,3.23
2023-02-03T03:45:53.790Z,3.57
2023-02-03T03:48:28.985Z,2.97
2023-02-03T03:51:04.200Z,3.57
2023-02-03T03:53:38.080Z,3.10
2023-02-03T03:56:11.308Z,3.00
2023-02-03T03:58:46.391Z,2.70
2023-02-03T04:01:17.958Z,3.10
2023-02-03T04:03:50.251Z,2.33
2023-02-03T04:06:20.392Z,2.93
2023-02-03T04:08:48.365Z,3.50
2023-02-03T04:11:36.479Z,3.60
2023-02-03T04:14:04.699Z,3.73
2023-02-03T04:16:32.945Z,5.10
2023-02-03T04:19:00.971Z,5.00
2023-02-03T04:21:30.178Z,6.17
2023-02-03T04:23:58.126Z,5.73
2023-02-03T04:26:26.106Z,5.80
2023-02-03T04:28:57.208Z,4.63
2023-02-03T04:31:25.225Z,5.10
2023-02-03T04:33:53.537Z,5.13
2023-02-03T04:36:21.530Z,4.47
2023-02-03T04:38:51.264Z,4.60
2023-02-03T04:41:19.325Z,5.30
2023-02-03T04:43:47.383Z,4.97
2023-02-03T04:46:15.554Z,5.00
2023-02-03T04:48:43.457Z,4.80
2023-02-03T04:51:11.367Z,5.03
2023-02-03T04:53:39.579Z,4.70
2023-02-03T04:56:09.180Z,5.23
2023-02-03T04:58:37.927Z,4.60
2023-02-03T05:01:10.214Z,5.33
2023-02-03T05:03:38.326Z,5.87
2023-02-03T05:06:06.981Z,4.93
2023-02-03T05:08:34.853Z,5.10
2023-02-03T05:11:03.528Z,3.63
2023-02-03T05:13:33.617Z,3.77
2023-02-03T05:16:01.663Z,3.33
2023-02-03T05:18:29.887Z,3.57
2023-02-03T05:20:57.780Z,2.77
2023-02-03T05:23:25.707Z,2.87
2023-02-03T05:25:53.589Z,3.00
2023-02-03T05:28:21.606Z,3.00
2023-02-03T05:30:50.847Z,2.80
2023-02-03T05:33:19.099Z,3.50
2023-02-03T05:35:47.097Z,3.43
2023-02-03T05:38:17.650Z,3.53
2023-02-03T05:41:03.245Z,3.60
2023-02-03T05:43:31.132Z,4.10
2023-02-03T05:46:02.686Z,4.70
2023-02-03T05:48:31.007Z,3.80
2023-02-03T05:50:58.965Z,5.00
2023-02-03T05:53:27.201Z,4.90
2023-02-03T05:55:55.662Z,5.07
2023-02-03T05:58:23.654Z,5.47
2023-02-03T06:00:52.673Z,5.10
2023-02-03T06:03:22.341Z,5.53
2023-02-03T06:05:50.465Z,5.37
2023-02-03T06:08:18.535Z,5.33
2023-02-03T06:10:46.523Z,5.50
2023-02-03T06:13:17.365Z,5.10
2023-02-03T06:15:45.324Z,5.67
2023-02-03T06:18:13.221Z,5.50
2023-02-03T06:20:42.790Z,5.00
2023-02-03T06:23:10.673Z,5.17
2023-02-03T06:25:38.990Z,5.17
2023-02-03T06:28:06.962Z,5.50
2023-02-03T06:30:34.983Z,5.30
2023-02-03T06:33:03.359Z,4.33
2023-02-03T06:35:31.305Z,4.70
2023-02-03T06:38:00.565Z,4.23
2023-02-03T06:40:29.093Z,4.80
2023-02-03T06:42:57.281Z,5.43
2023-02-03T06:45:25.918Z,5.23
2023-02-03T06:47:53.900Z,5.03
2023-02-03T06:50:21.925Z,4.67
2023-02-03T06:52:51.395Z,4.67
2023-02-03T06:55:20.921Z,5.10
2023-02-03T06:57:50.200Z,4.77
2023-02-03T07:00:21.411Z,4.60
2023-02-03T07:02:55.558Z,3.90
2023-02-03T07:05:25.090Z,3.60
2023-02-03T07:07:53.516Z,3.70
2023-02-03T07:10:23.271Z,3.10
2023-02-03T07:12:51.858Z,2.47
2023-02-03T07:15:20.078Z,2.40
2023-02-03T07:17:54.353Z,1.97
2023-02-03T07:20:24.666Z,2.17
2023-02-03T07:22:54.338Z,2.30
2023-02-03T07:25:25.444Z,2.33
2023-02-03T07:27:53.751Z,2.47
2023-02-03T07:30:22.272Z,2.27
2023-02-03T07:32:51.795Z,2.53
2023-02-03T07:35:20.656Z,2.57
2023-02-03T07:37:48.560Z,2.60
2023-02-03T07:40:17.393Z,1.70
2023-02-03T07:42:49.921Z,1.90
2023-02-03T07:45:22.190Z,1.90
2023-02-03T07:47:50.285Z,1.50
2023-02-03T07:50:18.938Z,1.43
2023-02-03T07:52:46.881Z,1.17
2023-02-03T07:55:14.795Z,1.60
2023-02-03T07:57:43.557Z,1.00
2023-02-03T08:00:16.824Z,1.30
2023-02-03T08:02:45.256Z,1.20
2023-02-03T08:05:14.424Z,1.10
2023-02-03T08:07:43.084Z,1.00
2023-02-03T08:10:15.350Z,1.03
2023-02-03T08:12:45.265Z,0.90
2023-02-03T08:15:17.216Z,0.80
2023-02-03T08:17:45.213Z,1.00
2023-02-03T08:20:13.825Z,0.93
2023-02-03T08:22:41.735Z,0.80
2023-02-03T08:25:10.983Z,1.20
2023-02-03T08:27:39.651Z,0.77
2023-02-03T08:30:11.196Z,0.80
2023-02-03T08:32:40.734Z,1.17
2023-02-03T08:35:09.525Z,24.53
2023-02-03T08:37:37.545Z,13.43
2023-02-03T08:40:07.292Z,5.40
2023-02-03T08:42:38.445Z,0.80
2023-02-03T08:45:08.104Z,0.80
2023-02-03T08:47:37.258Z,0.80
2023-02-03T08:50:10.059Z,0.83
2023-02-03T08:52:38.200Z,0.80
2023-02-03T08:55:07.253Z,1.00
2023-02-03T08:57:36.654Z,0.70
2023-02-03T09:00:07.392Z,0.67
2023-02-03T09:02:35.525Z,0.60
2023-02-03T09:05:03.623Z,0.50
2023-02-03T09:07:32.963Z,0.40
2023-02-03T09:10:00.857Z,0.50
2023-02-03T09:12:28.806Z,0.40
2023-02-03T09:14:56.688Z,0.50
2023-02-03T09:17:24.966Z,0.50
2023-02-03T09:19:53.119Z,0.50
2023-02-03T09:22:21.125Z,0.40
2023-02-03T09:24:51.315Z,0.50
2023-02-03T09:27:19.223Z,0.47
2023-02-03T09:29:47.101Z,5.17
2023-02-03T09:32:15.946Z,3.00
2023-02-03T09:34:44.024Z,1.87
2023-02-03T09:37:12.201Z,2.63
2023-02-03T09:39:40.073Z,1.00
2023-02-03T09:42:55.712Z,1.60
2023-02-03T09:45:28.753Z,1.10
2023-02-03T09:48:04.421Z,0.97
2023-02-03T09:50:38.213Z,0.73
2023-02-03T09:53:21.912Z,0.70
2023-02-03T09:55:50.131Z,0.80
2023-02-03T09:58:23.106Z,0.43
2023-02-03T10:00:55.064Z,0.33
2023-02-03T10:03:34.533Z,0.50
2023-02-03T10:06:28.797Z,0.70
2023-02-03T10:09:29.008Z,0.23
2023-02-03T10:12:31.167Z,0.50
2023-02-03T10:15:21.652Z,0.40
2023-02-03T10:18:01.211Z,0.30
2023-02-03T10:20:39.697Z,0.43
2023-02-03T10:23:14.677Z,0.47
2023-02-03T10:25:49.537Z,0.50
2023-02-03T10:28:21.786Z,0.53
2023-02-03T10:30:56.888Z,0.70
2023-02-03T10:33:28.313Z,0.40
2023-02-03T10:36:08.270Z,0.80
2023-02-03T10:38:53.154Z,0.70
2023-02-03T10:41:23.468Z,0.80
2023-02-03T10:43:55.520Z,0.80
2023-02-03T10:46:33.036Z,0.70
2023-02-03T10:49:02.082Z,0.63
2023-02-03T10:51:37.965Z,0.80
2023-02-03T10:54:06.506Z,20.73
2023-02-03T10:56:40.462Z,21.27
2023-02-03T10:59:10.341Z,15.60
2023-02-03T11:01:47.988Z,36.03
2023-02-03T11:04:27.969Z,19.53
2023-02-03T11:06:58.323Z,30.07
2023-02-03T11:09:34.129Z,17.10
2023-02-03T11:12:12.947Z,33.53
2023-02-03T11:14:44.226Z,32.87
2023-02-03T11:17:22.882Z,12.70
2023-02-03T11:19:54.375Z,4.90
2023-02-03T11:22:32.264Z,1.10
2023-02-03T11:25:03.911Z,2.03
2023-02-03T11:27:35.092Z,2.27
2023-02-03T11:30:16.461Z,1.40
2023-02-03T11:32:49.315Z,0.90
2023-02-03T11:35:23.826Z,1.53
2023-02-03T11:37:54.840Z,1.60
2023-02-03T11:40:30.162Z,1.10
2023-02-03T11:43:05.808Z,0.80
2023-02-03T11:45:42.187Z,1.03
2023-02-03T11:48:27.792Z,1.23
2023-02-03T11:51:06.069Z,1.70
2023-02-03T11:53:57.732Z,1.30
2023-02-03T11:56:53.493Z,1.40
2023-02-03T12:00:10.754Z,1.57
2023-02-03T12:03:21.936Z,1.60
2023-02-03T12:06:11.451Z,1.70
2023-02-03T12:09:10.000Z,1.50
2023-02-03T12:12:02.828Z,1.27
2023-02-03T12:14:53.653Z,1.30
2023-02-03T12:17:53.963Z,1.43
2023-02-03T12:20:53.981Z,1.17
2023-02-03T12:23:38.364Z,1.63
2023-02-03T12:26:20.992Z,1.57
2023-02-03T12:28:59.559Z,1.63
2023-02-03T12:31:37.691Z,1.30
2023-02-03T12:34:18.449Z,1.47
2023-02-03T12:36:54.322Z,1.17
2023-02-03T12:39:33.719Z,1.33
2023-02-03T12:42:11.243Z,2.27
2023-02-03T12:44:49.624Z,1.60
2023-02-03T12:47:28.799Z,1.33
2023-02-03T12:50:01.699Z,2.00
2023-02-03T12:52:39.743Z,1.63
2023-02-03T12:55:23.059Z,1.97
2023-02-03T12:58:00.110Z,1.83
2023-02-03T13:00:41.480Z,2.83
2023-02-03T13:03:24.966Z,1.80
2023-02-03T13:06:09.650Z,1.97
2023-02-03T13:08:47.132Z,2.20
2023-02-03T13:11:27.062Z,3.40
2023-02-03T13:14:04.581Z,2.23
2023-02-03T13:16:40.922Z,1.90
2023-02-03T13:19:21.528Z,2.17
2023-02-03T13:21:50.799Z,3.63
2023-02-03T13:24:26.782Z,2.27
2023-02-03T13:27:23.176Z,2.17
2023-02-03T13:30:10.033Z,2.20
2023-02-03T13:33:14.698Z,2.37
2023-02-03T13:36:03.099Z,2.33
2023-02-03T13:39:18.267Z,1.93
2023-02-03T13:41:53.195Z,2.77
2023-02-03T13:44:28.110Z,2.77
2023-02-03T13:47:01.705Z,2.37
2023-02-03T13:49:36.080Z,2.43
2023-02-03T13:52:04.917Z,2.43
2023-02-03T13:54:38.612Z,1.97
2023-02-03T13:57:23.467Z,2.30
2023-02-03T13:59:51.712Z,2.37
2023-02-03T14:02:54.084Z,2.27
2023-02-03T14:05:48.710Z,2.00
2023-02-03T14:08:53.604Z,1.80
2023-02-03T14:11:42.552Z,3.07
2023-02-03T14:14:58.443Z,1.90
2023-02-03T14:18:26.890Z,2.97
2023-02-03T14:21:24.693Z,2.63
2023-02-03T14:24:06.052Z,2.00
2023-02-03T14:26:44.125Z,3.20
2023-02-03T14:29:27.355Z,2.53
2023-02-03T14:32:02.901Z,2.47
2023-02-03T14:34:35.216Z,2.20
2023-02-03T14:37:20.914Z,2.60
2023-02-03T14:40:26.236Z,2.47
2023-02-03T14:43:22.984Z,2.63
2023-02-03T14:46:29.658Z,1.87
2023-02-03T14:49:27.244Z,2.30
2023-02-03T14:52:18.318Z,3.33
2023-02-03T14:55:15.129Z,9.17
2023-02-03T14:57:51.797Z,15.03
2023-02-03T15:00:34.198Z,11.33
2023-02-03T15:03:30.158Z,11.17
2023-02-03T15:06:03.170Z,6.87
2023-02-03T15:08:46.677Z,3.73
2023-02-03T15:11:34.477Z,2.87
2023-02-03T15:14:25.807Z,3.03
2023-02-03T15:17:03.928Z,2.40
2023-02-03T15:19:39.231Z,2.40
2023-02-03T15:22:22.461Z,2.33
2023-02-03T15:24:53.640Z,2.40
2023-02-03T15:27:24.538Z,2.47
2023-02-03T15:29:53.063Z,2.00
2023-02-03T15:32:29.164Z,2.97
2023-02-03T15:34:59.993Z,2.10
2023-02-03T15:37:41.798Z,1.77
2023-02-03T15:40:17.791Z,2.27
2023-02-03T15:42:58.695Z,2.20
2023-02-03T15:45:35.285Z,2.10
2023-02-03T15:48:14.505Z,2.10
2023-02-03T15:50:48.828Z,1.53
2023-02-03T15:53:26.246Z,2.03
2023-02-03T15:56:00.232Z,1.70
2023-02-03T15:58:31.769Z,1.80
2023-02-03T16:01:06.650Z,2.10
2023-02-03T16:03:41.174Z,1.80
2023-02-03T16:06:16.661Z,2.30
2023-02-03T16:08:48.082Z,1.80
2023-02-03T16:11:33.037Z,1.90
2023-02-03T16:14:03.316Z,3.20
2023-02-03T16:16:37.723Z,2.43
2023-02-03T16:19:13.613Z,7.57
2023-02-03T16:21:56.004Z,8.43
2023-02-03T16:24:49.334Z,8.93
2023-02-03T16:27:38.117Z,9.07
2023-02-03T16:30:43.591Z,3.53
2023-02-03T16:33:35.340Z,2.80
2023-02-03T16:36:30.154Z,2.73
2023-02-03T16:39:20.173Z,4.97
2023-02-03T16:42:07.281Z,5.37
2023-02-03T16:44:52.599Z,2.93
2023-02-03T16:47:44.393Z,3.37
2023-02-03T16:50:39.149Z,2.53
2023-02-03T16:53:13.982Z,3.20
2023-02-03T16:55:42.262Z,2.13
2023-02-03T16:58:12.574Z,2.50
2023-02-03T17:00:41.980Z,2.43
2023-02-03T17:03:12.991Z,2.47
2023-02-03T17:05:43.594Z,2.27
2023-02-03T17:08:11.994Z,2.77
2023-02-03T17:10:42.357Z,2.23
2023-02-03T17:13:12.629Z,3.03
2023-02-03T17:15:42.883Z,2.43
2023-02-03T17:18:10.936Z,2.57
2023-02-03T17:20:38.911Z,3.13
2023-02-03T17:23:07.090Z,2.70
2023-02-03T17:25:36.794Z,2.77
2023-02-03T17:28:05.679Z,2.67
2023-02-03T17:30:35.812Z,2.50
2023-02-03T17:33:11.712Z,2.50
2023-02-03T17:35:45.077Z,2.30
2023-02-03T17:38:15.207Z,2.30
2023-02-03T17:54:40.954Z,2.03
2023-02-03T17:57:09.207Z,1.80
2023-02-03T17:59:37.777Z,4.13
2023-02-03T18:02:07.196Z,3.00
2023-02-03T18:04:35.106Z,2.97
2023-02-03T18:07:03.079Z,2.97
2023-02-03T18:09:31.172Z,2.30
2023-02-03T18:11:59.041Z,1.90
2023-02-03T18:14:27.149Z,3.20
2023-02-03T18:16:55.165Z,1.90
2023-02-03T18:19:27.033Z,2.70
2023-02-03T18:21:55.141Z,2.60
2023-02-03T18:24:27.827Z,2.60
2023-02-03T18:27:00.154Z,2.53
2023-02-03T18:29:29.172Z,2.67
2023-02-03T18:31:57.168Z,2.57
2023-02-03T18:34:26.473Z,1.97
2023-02-03T18:36:54.659Z,3.03
2023-02-03T18:39:22.870Z,3.60
2023-02-03T18:41:50.814Z,2.60
2023-02-03T18:44:18.667Z,1.90
2023-02-03T18:46:46.586Z,2.80
2023-02-03T18:49:14.728Z,2.47
2023-02-03T18:51:43.938Z,2.43
2023-02-03T18:54:14.723Z,2.10
2023-02-03T18:56:42.865Z,2.83
2023-02-03T18:59:12.369Z,2.77
2023-02-03T19:01:40.702Z,2.60
2023-02-03T19:04:08.900Z,2.23
2023-02-03T19:06:45.258Z,2.50
2023-02-03T19:09:17.820Z,3.27
2023-02-03T19:11:45.909Z,2.67
2023-02-03T19:14:16.329Z,2.90
2023-02-03T19:16:44.863Z,2.50
2023-02-03T19:19:14.845Z,2.30
2023-02-03T19:21:42.734Z,3.10
2023-02-03T19:24:14.880Z,2.80
2023-02-03T19:26:43.103Z,2.87
2023-02-03T19:29:11.320Z,2.57
2023-02-03T19:31:39.532Z,2.60
2023-02-03T19:34:07.481Z,2.83
2023-02-03T19:36:35.441Z,2.73
2023-02-03T19:39:03.537Z,2.50
2023-02-03T19:41:35.974Z,3.30
2023-02-03T19:44:07.562Z,2.80
2023-02-03T19:46:38.318Z,2.60
2023-02-03T19:49:10.894Z,2.33
2023-02-03T19:51:39.160Z,2.63
2023-02-03T19:54:07.425Z,2.90
2023-02-03T19:56:36.634Z,3.03
2023-02-03T19:59:05.279Z,2.60
2023-02-03T20:01:33.272Z,2.97
2023-02-03T20:04:01.266Z,2.40
2023-02-03T20:06:31.499Z,3.13
2023-02-03T20:09:00.182Z,2.67
2023-02-03T20:11:29.163Z,2.80
2023-02-03T20:13:58.654Z,2.20
2023-02-03T20:16:26.588Z,3.00
2023-02-03T20:18:54.548Z,3.20
2023-02-03T20:21:22.420Z,3.07
2023-02-03T20:23:50.347Z,2.60
2023-02-03T20:26:18.334Z,2.27
2023-02-03T20:28:47.330Z,3.00
2023-02-03T20:31:16.953Z,2.37
2023-02-03T20:33:45.121Z,3.07
2023-02-03T20:36:13.285Z,2.87
2023-02-03T20:38:41.216Z,2.23
2023-02-03T20:41:12.505Z,2.47
2023-02-03T20:43:41.033Z,2.27
2023-02-03T20:46:12.433Z,2.80
2023-02-03T20:48:42.332Z,2.67
2023-02-03T20:51:12.525Z,2.60
2023-02-03T20:53:41.626Z,2.30
2023-02-03T20:56:15.222Z,2.90
2023-02-03T20:58:44.988Z,2.80
2023-02-03T21:01:16.790Z,2.40
2023-02-03T21:04:18.230Z,2.73
2023-02-03T21:06:46.227Z,2.63
2023-02-03T21:09:18.628Z,3.23
2023-02-03T21:11:46.797Z,3.37
2023-02-03T21:14:21.326Z,2.73
2023-02-03T21:16:50.409Z,2.70
2023-02-03T21:19:29.491Z,3.20
2023-02-03T21:21:58.078Z,1.97
2023-02-03T21:24:30.008Z,2.43
2023-02-03T21:27:01.308Z,1.73
2023-02-03T21:29:33.637Z,2.20
2023-02-03T21:32:02.134Z,2.73
2023-02-03T21:34:33.801Z,2.90
2023-02-03T21:37:27.807Z,2.40
2023-02-03T21:39:55.694Z,2.10
2023-02-03T21:42:45.878Z,2.30
2023-02-03T21:45:38.597Z,3.07
2023-02-03T21:48:29.861Z,2.97
2023-02-03T21:51:03.418Z,2.60
2023-02-03T21:53:36.256Z,2.60
2023-02-03T21:56:19.463Z,2.80
2023-02-03T21:58:50.592Z,2.57
2023-02-03T22:01:22.724Z,3.47
2023-02-03T22:03:52.741Z,2.93
2023-02-03T22:06:28.416Z,2.83
2023-02-03T22:08:58.791Z,2.27
2023-02-03T22:11:29.632Z,2.00
2023-02-03T22:13:58.241Z,2.83
2023-02-03T22:16:26.633Z,2.57
2023-02-03T22:18:54.599Z,2.47
2023-02-03T22:21:24.353Z,2.50
2023-02-03T22:23:52.513Z,3.40
2023-02-03T22:26:21.142Z,1.97
2023-02-03T22:28:49.728Z,2.60
2023-02-03T22:31:19.776Z,3.00
2023-02-03T22:33:47.922Z,3.00
2023-02-03T22:36:15.875Z,2.27
2023-02-03T22:38:45.087Z,3.27
2023-02-03T22:41:13.701Z,3.20
2023-02-03T22:43:41.971Z,3.17
2023-02-03T22:46:10.382Z,2.90
2023-02-03T22:48:38.355Z,3.97
2023-02-03T22:51:06.587Z,3.40
2023-02-03T22:53:34.759Z,3.77
2023-02-03T22:56:04.137Z,2.90
2023-02-03T22:58:32.026Z,3.73
2023-02-03T23:01:00.236Z,2.63
2023-02-03T23:03:31.937Z,4.67
2023-02-03T23:06:00.295Z,2.97
2023-02-03T23:08:28.284Z,3.50
2023-02-03T23:10:56.754Z,3.07
2023-02-03T23:13:26.697Z,2.73
2023-02-03T23:15:54.952Z,3.10
2023-02-03T23:18:22.860Z,3.63
2023-02-03T23:20:50.746Z,3.30
2023-02-03T23:23:18.630Z,2.87
2023-02-03T23:25:46.559Z,2.80
2023-02-03T23:28:14.462Z,3.10
2023-02-03T23:30:43.815Z,3.23
2023-02-03T23:33:11.723Z,3.20
2023-02-03T23:35:45.798Z,3.77
2023-02-03T23:38:14.279Z,3.13
2023-02-03T23:40:42.413Z,2.57
2023-02-03T23:43:10.455Z,2.90
2023-02-03T23:45:38.368Z,2.90
2023-02-03T23:48:08.497Z,2.53
2023-02-03T23:50:36.439Z,3.10
2023-02-03T23:53:04.510Z,2.90
2023-02-03T23:55:32.530Z,2.77
2023-02-03T23:58:00.583Z,3.67
